RJSM METAR and TAF | Updated Today

RJSM METAR

Misawa Air Base

Observation time: 61 min. ago

RJSM 061900Z 24004KT 9999 FEW060 SCT150 BKN180 07/04 Q1022

Need help? Read our tutorial on how to read METARs or read the parsed version below.

Misawa Air Base (RJSM) METAR

  • Weather conditions on Thu, 06 Oct 2022 19:00:00 +0000 (61 min. ago):
  • Present conditions: Dry
  • Clouds: A few at 1829 meters; scattered at 4572 meters; broken sky at 5486 meters
  • Visibility: Greater than 10 km
  • Wind: 240 degrees at 4 knots
  • Temperature: 7 celsius
  • Dew point: 4 celsius
  • Pressure: 1022 millibars
  • Remarks: None


Useful to know...